OIKQ

Details ICAO OIKQ
Name DAYRESTAN
Region Iran
Timezone Asia/Tehran (UTC+3.5)
Plans Departing 6
Arriving 5
Stats Elevation 45 ft / 14 m (AMSL)
Location 26.754639° 55.902354°
Runways 1
Magnetic Variation 2.272° E
Sunrise 2017-12-18 03:00:30 UTC / 2017-12-18 06:30:30 Local
Sunset 2017-12-18 13:28:04 UTC / 2017-12-18 16:58:04 Local
Advertisement - Login to hide

Runways

ID Width Length Bearing (true) Bearing (mag) Surface Threshold Offset Overrun Length
05 148 ft / 45 m 13,874 ft / 4,229 m 49.35° 47.08° Asphalt 0 ft / 0 m 450 ft / 137 m
23 148 ft / 45 m 13,874 ft / 4,229 m 229.36° 227.09° Asphalt 0 ft / 0 m 450 ft / 137 m

Map

Weather


0- 5 10 15 20 25 30 35+ Temperature / ° C

Clouds and Precipitation
Forecast for 2017-12-18 06:00 UTC. Updated 27 minutes ago

Ground ~20,000 ft ~40,000 ft Winds

METAR

OIKQ 180100Z 11010KT 5000 +TSRA SCT025CB SCT030 OVC080 15/12 Q1019

TAF

Not found

Frequencies

Tower 121.65 MHz INFO
Tower 118.05 MHz INFO
Warning: Do not use this data for real-world aviation or navigation. No guarantee of current accuracy is given.